WZZ41A LHBP-EPWA
Flight info
| Callsign | WZZ41A |
|---|---|
| Flight time | 1h 0m |
| Altitude | 37000 |
| Route | LITKU Y301 KALIF DCT SUPAK DCT ORTEB DCT KONZI DCT LOGDA |
| Aircraft | A321/M-SDE1E2E3FGIJ1J4RWXY/LB1 |
Departure
| Time | 2026-05-04 21:15 |
|---|---|
| Airport | Budapest Liszt Ferenc International Airport (LHBP) |
Arrival
| Time | 2026-05-04 22:15 |
|---|---|
| Airport | Warsaw Chopin Airport (EPWA) |
| Time | Latitude | Longitude | Altitude | Speed | Heading |
|---|---|---|---|---|---|
| 2026-05-04 20:58 | 47.43458 | 19.26257 | 458 ft | 0 kts | 222° |
| 2026-05-04 21:07 | 47.43461 | 19.26262 | 457 ft | 4 kts | 224° |
| 2026-05-04 21:07 | 47.43478 | 19.26292 | 457 ft | 4 kts | 246° |
| 2026-05-04 21:07 | 47.43483 | 19.26327 | 457 ft | 4 kts | 287° |
| 2026-05-04 21:07 | 47.43478 | 19.26344 | 457 ft | 0 kts | 312° |
| 2026-05-04 21:09 | 47.43482 | 19.26337 | 457 ft | 4 kts | 312° |
| 2026-05-04 21:10 | 47.43532 | 19.26255 | 457 ft | 4 kts | 312° |
| 2026-05-04 21:10 | 47.43536 | 19.26250 | 456 ft | 3 kts | 312° |
| 2026-05-04 21:10 | 47.43599 | 19.26176 | 457 ft | 17 kts | 331° |
| 2026-05-04 21:10 | 47.43677 | 19.26064 | 457 ft | 16 kts | 311° |
| 2026-05-04 21:11 | 47.43756 | 19.25935 | 457 ft | 18 kts | 311° |
| 2026-05-04 21:11 | 47.43856 | 19.25868 | 457 ft | 17 kts | 15° |
| 2026-05-04 21:11 | 47.43945 | 19.25979 | 458 ft | 14 kts | 43° |
| 2026-05-04 21:11 | 47.44029 | 19.26011 | 458 ft | 14 kts | 330° |
| 2026-05-04 21:12 | 47.44102 | 19.25902 | 458 ft | 16 kts | 311° |
| 2026-05-04 21:12 | 47.44178 | 19.25776 | 458 ft | 17 kts | 312° |
| 2026-05-04 21:12 | 47.44262 | 19.25639 | 458 ft | 19 kts | 312° |
| 2026-05-04 21:12 | 47.44372 | 19.25555 | 459 ft | 18 kts | 349° |
| 2026-05-04 21:13 | 47.44477 | 19.25625 | 465 ft | 15 kts | 47° |
| 2026-05-04 21:13 | 47.44507 | 19.25714 | 476 ft | 5 kts | 79° |
| 2026-05-04 21:13 | 47.44506 | 19.25796 | 471 ft | 13 kts | 102° |
| 2026-05-04 21:13 | 47.44468 | 19.25881 | 476 ft | 0 kts | 131° |
| 2026-05-04 21:14 | 47.44462 | 19.25891 | 476 ft | 7 kts | 131° |
| 2026-05-04 21:14 | 47.44298 | 19.26156 | 474 ft | 74 kts | 132° |
| 2026-05-04 21:14 | 47.43784 | 19.26986 | 471 ft | 142 kts | 132° |
| 2026-05-04 21:14 | 47.43028 | 19.28176 | 843 ft | 162 kts | 133° |
| 2026-05-04 21:15 | 47.42266 | 19.29406 | 1586 ft | 163 kts | 130° |
| 2026-05-04 21:15 | 47.41671 | 19.30846 | 2260 ft | 172 kts | 118° |
| 2026-05-04 21:15 | 47.41061 | 19.32552 | 2515 ft | 202 kts | 121° |
| 2026-05-04 21:15 | 47.40325 | 19.34485 | 2811 ft | 228 kts | 121° |
| 2026-05-04 21:16 | 47.39525 | 19.36574 | 3474 ft | 238 kts | 122° |
| 2026-05-04 21:16 | 47.38700 | 19.38742 | 4246 ft | 246 kts | 120° |
| 2026-05-04 21:16 | 47.38252 | 19.41281 | 4724 ft | 272 kts | 88° |
| 2026-05-04 21:16 | 47.38896 | 19.43923 | 5413 ft | 283 kts | 54° |
| 2026-05-04 21:17 | 47.40268 | 19.46026 | 6271 ft | 286 kts | 40° |
| 2026-05-04 21:17 | 47.41853 | 19.47842 | 7128 ft | 290 kts | 37° |
| 2026-05-04 21:17 | 47.43472 | 19.49649 | 7947 ft | 294 kts | 38° |
| 2026-05-04 21:17 | 47.45066 | 19.51563 | 8753 ft | 297 kts | 41° |
| 2026-05-04 21:18 | 47.46622 | 19.53601 | 9536 ft | 300 kts | 44° |
| 2026-05-04 21:18 | 47.48146 | 19.55736 | 10293 ft | 304 kts | 45° |
| 2026-05-04 21:18 | 47.49703 | 19.58024 | 10585 ft | 327 kts | 46° |
| 2026-05-04 21:18 | 47.51341 | 19.60497 | 10964 ft | 343 kts | 46° |
| 2026-05-04 21:19 | 47.53022 | 19.63056 | 11637 ft | 349 kts | 46° |
| 2026-05-04 21:19 | 47.54810 | 19.65494 | 12372 ft | 352 kts | 34° |
| 2026-05-04 21:19 | 47.57004 | 19.66988 | 13067 ft | 355 kts | 13° |
| 2026-05-04 21:19 | 47.59457 | 19.67239 | 13768 ft | 357 kts | 352° |
| 2026-05-04 21:20 | 47.61824 | 19.66177 | 14458 ft | 358 kts | 331° |
| 2026-05-04 21:20 | 47.63791 | 19.63935 | 15122 ft | 360 kts | 313° |
| 2026-05-04 21:20 | 47.65488 | 19.61192 | 15812 ft | 362 kts | 312° |
| 2026-05-04 21:20 | 47.67192 | 19.58423 | 16490 ft | 365 kts | 312° |
| 2026-05-04 21:21 | 47.68912 | 19.55636 | 17135 ft | 368 kts | 312° |
| 2026-05-04 21:21 | 47.70648 | 19.52830 | 17766 ft | 370 kts | 312° |
| 2026-05-04 21:21 | 47.72400 | 19.50007 | 18396 ft | 373 kts | 313° |
| 2026-05-04 21:21 | 47.74189 | 19.47198 | 19003 ft | 376 kts | 318° |
| 2026-05-04 21:22 | 47.76383 | 19.45087 | 19564 ft | 379 kts | 338° |
| 2026-05-04 21:22 | 47.78951 | 19.44218 | 20124 ft | 382 kts | 358° |
| 2026-05-04 21:22 | 47.81580 | 19.44721 | 20686 ft | 385 kts | 18° |
| 2026-05-04 21:22 | 47.83953 | 19.46562 | 21230 ft | 389 kts | 38° |
| 2026-05-04 21:23 | 47.85985 | 19.49243 | 21776 ft | 392 kts | 42° |
| 2026-05-04 21:23 | 47.87998 | 19.52006 | 22324 ft | 395 kts | 42° |
| 2026-05-04 21:23 | 47.90026 | 19.54787 | 22856 ft | 398 kts | 40° |
| 2026-05-04 21:23 | 47.92275 | 19.57200 | 23350 ft | 400 kts | 29° |
| 2026-05-04 21:24 | 47.94812 | 19.58917 | 23830 ft | 402 kts | 17° |
| 2026-05-04 21:24 | 47.97538 | 19.59853 | 24306 ft | 404 kts | 6° |
| 2026-05-04 21:24 | 48.00354 | 19.60009 | 24775 ft | 406 kts | 359° |
| 2026-05-04 21:24 | 48.03185 | 19.59962 | 25239 ft | 408 kts | 359° |
| 2026-05-04 21:25 | 48.06031 | 19.59935 | 25704 ft | 410 kts | 359° |
| 2026-05-04 21:25 | 48.08893 | 19.59922 | 26154 ft | 412 kts | 359° |
| 2026-05-04 21:25 | 48.11767 | 19.59915 | 26593 ft | 414 kts | 359° |
| 2026-05-04 21:25 | 48.14652 | 19.59910 | 27024 ft | 415 kts | 359° |
| 2026-05-04 21:26 | 48.17552 | 19.59900 | 27438 ft | 418 kts | 359° |
| 2026-05-04 21:26 | 48.20461 | 19.59882 | 27862 ft | 419 kts | 359° |
| 2026-05-04 21:26 | 48.23385 | 19.59851 | 28264 ft | 421 kts | 358° |
| 2026-05-04 21:26 | 48.26319 | 19.59710 | 28659 ft | 423 kts | 357° |
| 2026-05-04 21:27 | 48.29264 | 19.59451 | 29048 ft | 425 kts | 355° |
| 2026-05-04 21:27 | 48.32178 | 19.59126 | 29431 ft | 426 kts | 355° |
| 2026-05-04 21:27 | 48.35141 | 19.58773 | 29803 ft | 428 kts | 355° |
| 2026-05-04 21:27 | 48.38115 | 19.58425 | 30159 ft | 429 kts | 355° |
| 2026-05-04 21:28 | 48.41103 | 19.58096 | 30482 ft | 432 kts | 355° |
| 2026-05-04 21:28 | 48.44108 | 19.57791 | 30807 ft | 434 kts | 356° |
| 2026-05-04 21:28 | 48.47131 | 19.57504 | 31126 ft | 436 kts | 356° |
| 2026-05-04 21:28 | 48.50168 | 19.57371 | 31438 ft | 439 kts | 2° |
| 2026-05-04 21:29 | 48.53208 | 19.57918 | 31743 ft | 441 kts | 10° |
| 2026-05-04 21:29 | 48.55246 | 19.58511 | 32020 ft | 441 kts | 9° |
| 2026-05-04 21:29 | 48.58215 | 19.59360 | 32451 ft | 440 kts | 9° |
| 2026-05-04 21:29 | 48.61258 | 19.60219 | 32879 ft | 439 kts | 9° |
| 2026-05-04 21:30 | 48.64215 | 19.61047 | 33274 ft | 438 kts | 9° |
| 2026-05-04 21:30 | 48.67214 | 19.61886 | 33655 ft | 437 kts | 9° |
| 2026-05-04 21:30 | 48.70202 | 19.62725 | 34017 ft | 437 kts | 9° |
| 2026-05-04 21:30 | 48.74199 | 19.63856 | 34518 ft | 436 kts | 9° |
| 2026-05-04 21:31 | 48.79158 | 19.65263 | 35109 ft | 436 kts | 9° |
| 2026-05-04 21:31 | 48.82137 | 19.66110 | 35450 ft | 436 kts | 9° |
| 2026-05-04 21:31 | 48.85117 | 19.66959 | 35768 ft | 436 kts | 9° |
| 2026-05-04 21:32 | 48.88102 | 19.67812 | 36091 ft | 436 kts | 9° |
| 2026-05-04 21:32 | 48.91084 | 19.68665 | 36393 ft | 437 kts | 9° |
| 2026-05-04 21:32 | 48.94069 | 19.69514 | 36690 ft | 437 kts | 9° |
| 2026-05-04 21:32 | 48.97054 | 19.70365 | 36991 ft | 436 kts | 9° |
| 2026-05-04 21:33 | 49.00026 | 19.71218 | 37064 ft | 433 kts | 9° |
| 2026-05-04 21:33 | 49.05892 | 19.72906 | 37073 ft | 426 kts | 9° |
| 2026-05-04 21:34 | 49.11717 | 19.74586 | 37073 ft | 426 kts | 9° |
| 2026-05-04 21:34 | 49.17547 | 19.76263 | 37072 ft | 427 kts | 9° |
| 2026-05-04 21:35 | 49.23384 | 19.77953 | 37073 ft | 427 kts | 9° |
| 2026-05-04 21:35 | 49.29208 | 19.79866 | 37074 ft | 429 kts | 17° |
| 2026-05-04 21:36 | 49.34565 | 19.83938 | 37073 ft | 433 kts | 30° |
| 2026-05-04 21:36 | 49.39680 | 19.88810 | 37071 ft | 433 kts | 30° |
| 2026-05-04 21:37 | 49.44811 | 19.93677 | 37070 ft | 434 kts | 30° |
| 2026-05-04 21:37 | 49.49953 | 19.98564 | 37071 ft | 435 kts | 30° |
| 2026-05-04 21:38 | 49.55091 | 20.03467 | 37068 ft | 435 kts | 30° |
| 2026-05-04 21:38 | 49.60226 | 20.08401 | 37065 ft | 435 kts | 30° |
| 2026-05-04 21:39 | 49.65360 | 20.13330 | 37058 ft | 435 kts | 30° |
| 2026-05-04 21:39 | 49.70496 | 20.18269 | 37055 ft | 435 kts | 30° |
| 2026-05-04 21:40 | 49.75628 | 20.23237 | 37050 ft | 435 kts | 30° |
| 2026-05-04 21:40 | 49.80759 | 20.28215 | 37050 ft | 435 kts | 30° |
| 2026-05-04 21:41 | 49.85896 | 20.33192 | 37041 ft | 436 kts | 30° |
| 2026-05-04 21:41 | 49.91065 | 20.38201 | 36752 ft | 442 kts | 30° |
| 2026-05-04 21:41 | 49.93667 | 20.40739 | 36505 ft | 441 kts | 31° |
| 2026-05-04 21:42 | 49.96253 | 20.43267 | 36246 ft | 439 kts | 30° |
| 2026-05-04 21:42 | 49.98837 | 20.45799 | 36001 ft | 439 kts | 30° |
| 2026-05-04 21:42 | 50.01419 | 20.48331 | 35749 ft | 439 kts | 30° |
| 2026-05-04 21:42 | 50.04012 | 20.50874 | 35495 ft | 441 kts | 30° |
| 2026-05-04 21:43 | 50.06609 | 20.53405 | 35251 ft | 440 kts | 28° |
| 2026-05-04 21:43 | 50.09344 | 20.55493 | 35000 ft | 436 kts | 19° |
| 2026-05-04 21:43 | 50.12188 | 20.56854 | 34754 ft | 432 kts | 10° |
| 2026-05-04 21:43 | 50.15145 | 20.57506 | 34505 ft | 427 kts | 1° |
| 2026-05-04 21:44 | 50.18104 | 20.57788 | 34257 ft | 425 kts | 1° |
| 2026-05-04 21:44 | 50.21052 | 20.58073 | 34007 ft | 423 kts | 1° |
| 2026-05-04 21:44 | 50.23987 | 20.58367 | 33757 ft | 421 kts | 2° |
| 2026-05-04 21:44 | 50.26905 | 20.58668 | 33507 ft | 420 kts | 2° |
| 2026-05-04 21:45 | 50.29812 | 20.58974 | 33256 ft | 418 kts | 2° |
| 2026-05-04 21:45 | 50.32701 | 20.59281 | 33006 ft | 416 kts | 2° |
| 2026-05-04 21:45 | 50.35583 | 20.59588 | 32756 ft | 414 kts | 2° |
| 2026-05-04 21:45 | 50.38450 | 20.59891 | 32506 ft | 413 kts | 2° |
| 2026-05-04 21:46 | 50.41312 | 20.60186 | 32255 ft | 411 kts | 2° |
| 2026-05-04 21:46 | 50.44154 | 20.60476 | 32006 ft | 409 kts | 2° |
| 2026-05-04 21:46 | 50.46987 | 20.60768 | 31755 ft | 406 kts | 2° |
| 2026-05-04 21:46 | 50.49801 | 20.61060 | 31504 ft | 405 kts | 2° |
| 2026-05-04 21:47 | 50.52599 | 20.61351 | 31252 ft | 401 kts | 2° |
| 2026-05-04 21:47 | 50.55366 | 20.61643 | 30831 ft | 397 kts | 2° |
| 2026-05-04 21:47 | 50.58114 | 20.61933 | 30385 ft | 394 kts | 2° |
| 2026-05-04 21:47 | 50.60839 | 20.62224 | 29943 ft | 391 kts | 2° |
| 2026-05-04 21:48 | 50.63512 | 20.62506 | 29517 ft | 389 kts | 2° |
| 2026-05-04 21:48 | 50.66234 | 20.62795 | 29085 ft | 386 kts | 2° |
| 2026-05-04 21:48 | 50.68870 | 20.63075 | 28676 ft | 384 kts | 2° |
| 2026-05-04 21:48 | 50.71525 | 20.63355 | 28266 ft | 381 kts | 2° |
| 2026-05-04 21:49 | 50.74166 | 20.63626 | 27861 ft | 379 kts | 2° |
| 2026-05-04 21:49 | 50.76794 | 20.63894 | 27460 ft | 377 kts | 2° |
| 2026-05-04 21:49 | 50.79402 | 20.64167 | 27078 ft | 375 kts | 2° |
| 2026-05-04 21:49 | 50.81994 | 20.64445 | 26680 ft | 372 kts | 2° |
| 2026-05-04 21:50 | 50.84566 | 20.64721 | 26311 ft | 369 kts | 2° |
| 2026-05-04 21:50 | 50.87115 | 20.64991 | 25933 ft | 366 kts | 2° |
| 2026-05-04 21:50 | 50.89647 | 20.65258 | 25532 ft | 363 kts | 2° |
| 2026-05-04 21:50 | 50.92159 | 20.65521 | 25143 ft | 361 kts | 2° |
| 2026-05-04 21:51 | 50.94653 | 20.65783 | 24749 ft | 358 kts | 2° |
| 2026-05-04 21:51 | 50.97131 | 20.66046 | 24345 ft | 355 kts | 2° |
| 2026-05-04 21:51 | 50.99588 | 20.66307 | 23948 ft | 353 kts | 2° |
| 2026-05-04 21:51 | 51.02036 | 20.66566 | 23537 ft | 351 kts | 2° |
| 2026-05-04 21:52 | 51.04468 | 20.66821 | 23131 ft | 349 kts | 2° |
| 2026-05-04 21:52 | 51.06888 | 20.67077 | 22720 ft | 348 kts | 2° |
| 2026-05-04 21:52 | 51.09293 | 20.67336 | 22304 ft | 346 kts | 2° |
| 2026-05-04 21:52 | 51.11688 | 20.67592 | 21893 ft | 344 kts | 1° |
| 2026-05-04 21:53 | 51.14068 | 20.67843 | 21478 ft | 342 kts | 1° |
| 2026-05-04 21:53 | 51.16436 | 20.68094 | 21067 ft | 340 kts | 1° |
| 2026-05-04 21:53 | 51.18794 | 20.68346 | 20663 ft | 339 kts | 1° |
| 2026-05-04 21:53 | 51.21139 | 20.68596 | 20250 ft | 337 kts | 1° |
| 2026-05-04 21:54 | 51.23475 | 20.68846 | 19842 ft | 336 kts | 1° |
| 2026-05-04 21:54 | 51.25802 | 20.69095 | 19435 ft | 335 kts | 1° |
| 2026-05-04 21:54 | 51.28118 | 20.69429 | 19024 ft | 335 kts | 7° |
| 2026-05-04 21:54 | 51.30366 | 20.70397 | 18680 ft | 338 kts | 17° |
| 2026-05-04 21:55 | 51.32637 | 20.71627 | 18351 ft | 348 kts | 17° |
| 2026-05-04 21:55 | 51.34938 | 20.72858 | 17998 ft | 349 kts | 16° |
| 2026-05-04 21:55 | 51.37240 | 20.74084 | 17656 ft | 348 kts | 16° |
| 2026-05-04 21:55 | 51.39538 | 20.75309 | 17318 ft | 347 kts | 16° |
| 2026-05-04 21:56 | 51.41795 | 20.76519 | 16967 ft | 346 kts | 16° |
| 2026-05-04 21:56 | 51.44076 | 20.77744 | 16643 ft | 345 kts | 16° |
| 2026-05-04 21:56 | 51.46345 | 20.78965 | 16307 ft | 344 kts | 16° |
| 2026-05-04 21:56 | 51.48606 | 20.80183 | 15970 ft | 342 kts | 16° |
| 2026-05-04 21:57 | 51.50857 | 20.81397 | 15636 ft | 341 kts | 16° |
| 2026-05-04 21:57 | 51.53101 | 20.82606 | 15303 ft | 339 kts | 16° |
| 2026-05-04 21:57 | 51.55334 | 20.83809 | 14971 ft | 338 kts | 16° |
| 2026-05-04 21:57 | 51.57562 | 20.85009 | 14644 ft | 337 kts | 16° |
| 2026-05-04 21:58 | 51.59777 | 20.86205 | 14310 ft | 336 kts | 16° |
| 2026-05-04 21:58 | 51.61986 | 20.87405 | 13982 ft | 334 kts | 16° |
| 2026-05-04 21:58 | 51.64189 | 20.88603 | 13655 ft | 333 kts | 16° |
| 2026-05-04 21:58 | 51.66380 | 20.89792 | 13324 ft | 332 kts | 15° |
| 2026-05-04 21:59 | 51.68560 | 20.90976 | 12991 ft | 330 kts | 16° |
| 2026-05-04 21:59 | 51.70732 | 20.92144 | 12666 ft | 328 kts | 15° |
| 2026-05-04 21:59 | 51.72903 | 20.93285 | 12339 ft | 327 kts | 15° |
| 2026-05-04 21:59 | 51.75067 | 20.94346 | 12048 ft | 321 kts | 9° |
| 2026-05-04 22:00 | 51.77248 | 20.94681 | 11718 ft | 311 kts | 353° |
| 2026-05-04 22:00 | 51.79352 | 20.94130 | 11395 ft | 302 kts | 339° |
| 2026-05-04 22:00 | 51.81262 | 20.92834 | 11098 ft | 296 kts | 328° |
| 2026-05-04 22:00 | 51.83086 | 20.91306 | 10804 ft | 295 kts | 328° |
| 2026-05-04 22:01 | 51.84906 | 20.89789 | 10504 ft | 294 kts | 329° |
| 2026-05-04 22:01 | 51.86721 | 20.88283 | 10206 ft | 292 kts | 329° |
| 2026-05-04 22:01 | 51.88528 | 20.86786 | 9916 ft | 291 kts | 329° |
| 2026-05-04 22:01 | 51.90344 | 20.85279 | 9404 ft | 295 kts | 329° |
| 2026-05-04 22:02 | 51.92160 | 20.83764 | 9123 ft | 290 kts | 329° |
| 2026-05-04 22:02 | 51.93953 | 20.82266 | 8773 ft | 288 kts | 329° |
| 2026-05-04 22:02 | 51.95708 | 20.80821 | 8646 ft | 278 kts | 333° |
| 2026-05-04 22:02 | 51.97568 | 20.80226 | 8520 ft | 274 kts | 4° |
| 2026-05-04 22:03 | 51.99301 | 20.81348 | 8350 ft | 271 kts | 38° |
| 2026-05-04 22:03 | 52.00422 | 20.83765 | 8009 ft | 269 kts | 62° |
| 2026-05-04 22:03 | 52.01294 | 20.86453 | 7612 ft | 266 kts | 62° |
| 2026-05-04 22:03 | 52.02019 | 20.89100 | 7509 ft | 247 kts | 77° |
| 2026-05-04 22:04 | 52.02046 | 20.91777 | 7315 ft | 232 kts | 106° |
| 2026-05-04 22:04 | 52.01374 | 20.94062 | 6917 ft | 222 kts | 135° |
| 2026-05-04 22:04 | 52.00206 | 20.95587 | 6574 ft | 210 kts | 157° |
| 2026-05-04 22:04 | 51.98952 | 20.96669 | 6277 ft | 200 kts | 156° |
| 2026-05-04 22:05 | 51.97734 | 20.97737 | 5912 ft | 198 kts | 156° |
| 2026-05-04 22:05 | 51.96510 | 20.98810 | 5673 ft | 201 kts | 156° |
| 2026-05-04 22:05 | 51.95281 | 20.99893 | 5406 ft | 200 kts | 156° |
| 2026-05-04 22:05 | 51.94077 | 21.00960 | 5200 ft | 200 kts | 156° |
| 2026-05-04 22:06 | 51.92861 | 21.02036 | 4975 ft | 199 kts | 156° |
| 2026-05-04 22:06 | 51.91649 | 21.03098 | 4884 ft | 198 kts | 156° |
| 2026-05-04 22:06 | 51.90431 | 21.04154 | 4784 ft | 198 kts | 156° |
| 2026-05-04 22:06 | 51.89237 | 21.05289 | 4690 ft | 201 kts | 145° |
| 2026-05-04 22:07 | 51.88405 | 21.07138 | 4612 ft | 209 kts | 114° |
| 2026-05-04 22:07 | 51.88217 | 21.09457 | 4508 ft | 212 kts | 84° |
| 2026-05-04 22:07 | 51.88726 | 21.11677 | 4360 ft | 211 kts | 60° |
| 2026-05-04 22:07 | 51.89428 | 21.13761 | 4256 ft | 211 kts | 60° |
| 2026-05-04 22:08 | 51.90259 | 21.15701 | 4150 ft | 209 kts | 41° |
| 2026-05-04 22:08 | 51.91492 | 21.16862 | 4039 ft | 204 kts | 13° |
| 2026-05-04 22:08 | 51.92872 | 21.17013 | 3902 ft | 196 kts | 345° |
| 2026-05-04 22:08 | 51.94106 | 21.16238 | 3809 ft | 183 kts | 327° |
| 2026-05-04 22:09 | 51.95190 | 21.15301 | 3671 ft | 171 kts | 326° |
| 2026-05-04 22:09 | 51.96230 | 21.14399 | 3581 ft | 169 kts | 326° |
| 2026-05-04 22:09 | 51.97266 | 21.13502 | 3507 ft | 169 kts | 326° |
| 2026-05-04 22:09 | 51.98304 | 21.12601 | 3444 ft | 169 kts | 326° |
| 2026-05-04 22:10 | 51.99340 | 21.11703 | 3371 ft | 169 kts | 326° |
| 2026-05-04 22:10 | 52.00379 | 21.10804 | 3309 ft | 169 kts | 326° |
| 2026-05-04 22:10 | 52.01410 | 21.09911 | 3241 ft | 167 kts | 327° |
| 2026-05-04 22:10 | 52.02433 | 21.09024 | 3175 ft | 167 kts | 327° |
| 2026-05-04 22:11 | 52.03450 | 21.08139 | 3012 ft | 164 kts | 327° |
| 2026-05-04 22:11 | 52.04461 | 21.07263 | 2814 ft | 165 kts | 328° |
| 2026-05-04 22:11 | 52.05462 | 21.06393 | 2618 ft | 159 kts | 328° |
| 2026-05-04 22:11 | 52.06390 | 21.05589 | 2388 ft | 145 kts | 329° |
| 2026-05-04 22:12 | 52.07265 | 21.04829 | 2183 ft | 141 kts | 329° |
| 2026-05-04 22:12 | 52.08125 | 21.04080 | 2004 ft | 140 kts | 330° |
| 2026-05-04 22:12 | 52.08984 | 21.03333 | 1824 ft | 140 kts | 330° |
| 2026-05-04 22:12 | 52.09840 | 21.02587 | 1637 ft | 140 kts | 331° |
| 2026-05-04 22:13 | 52.10703 | 21.01835 | 1453 ft | 141 kts | 332° |
| 2026-05-04 22:13 | 52.11566 | 21.01084 | 1263 ft | 140 kts | 332° |
| 2026-05-04 22:13 | 52.12424 | 21.00334 | 1067 ft | 140 kts | 332° |
| 2026-05-04 22:13 | 52.13282 | 20.99588 | 840 ft | 139 kts | 332° |
| 2026-05-04 22:14 | 52.14125 | 20.98856 | 657 ft | 139 kts | 331° |
| 2026-05-04 22:14 | 52.14987 | 20.98095 | 467 ft | 139 kts | 332° |
| 2026-05-04 22:14 | 52.15823 | 20.97362 | 347 ft | 136 kts | 332° |
| 2026-05-04 22:14 | 52.16533 | 20.96747 | 336 ft | 91 kts | 332° |
| 2026-05-04 22:15 | 52.16935 | 20.96393 | 334 ft | 34 kts | 332° |
| 2026-05-04 22:15 | 52.17106 | 20.96267 | 335 ft | 19 kts | 344° |
| 2026-05-04 22:15 | 52.17238 | 20.96237 | 333 ft | 20 kts | 359° |
| 2026-05-04 22:15 | 52.17353 | 20.96247 | 335 ft | 14 kts | 12° |
| 2026-05-04 22:16 | 52.17420 | 20.96359 | 334 ft | 15 kts | 63° |
| 2026-05-04 22:16 | 52.17473 | 20.96522 | 339 ft | 16 kts | 56° |
| 2026-05-04 22:16 | 52.17542 | 20.96656 | 339 ft | 17 kts | 61° |
| 2026-05-04 22:16 | 52.17597 | 20.96818 | 335 ft | 16 kts | 60° |
| 2026-05-04 22:17 | 52.17682 | 20.96880 | 335 ft | 15 kts | 338° |
| 2026-05-04 22:17 | 52.17717 | 20.96794 | 336 ft | 9 kts | 248° |
| 2026-05-04 22:17 | 52.17712 | 20.96778 | 335 ft | 0 kts | 237° |
| 2026-05-04 22:34 | 52.15027 | 20.98060 | 460 ft | 139 kts | 332° |
| 2026-05-04 22:34 | 52.15873 | 20.97318 | 352 ft | 134 kts | 332° |
| 2026-05-04 22:34 | 52.16555 | 20.96763 | 337 ft | 74 kts | 340° |
| 2026-05-04 22:34 | 52.16781 | 20.96651 | 337 ft | 30 kts | 345° |